Alcala del Valle, Spain
Current Conditions -  °F | °C
As of 12:00 AM on Friday 28 Nov 2014 (Local Time) from LEMO Reporting Station
Light Rain Light Rain  
Wind Chill: 57°   Ceiling: 4500
Heat Index: 57°   Visibility: 5mi
Dew Point: 52°   Wind: 14mph
Humidity: 82%   Direction: 180°S
Pressure: 29.29"   Gusts: NA
Location:  36.9°N, 5.17°W
Report Text: LEMO 272300Z 18012KT 8000 -RA FEW015 BKN045 14/11 Q0992 NOSIG
Loading
Personal Weather Stations






























Interactive Weather Map New forecast layout! Learn more

10-Day Weather Forecast

Advertisements
Track Severe Weather on mobile